createdAt,value
2022-09-06T00:00:19.693Z,79.06
2022-09-06T00:01:19.693Z,79.17
2022-09-06T00:02:19.735Z,79.57
2022-09-06T00:03:19.698Z,79.37
2022-09-06T00:04:19.735Z,79.77
2022-09-06T00:05:19.702Z,79.06
2022-09-06T00:06:19.707Z,79.50
2022-09-06T00:07:19.706Z,79.77
2022-09-06T00:08:19.961Z,79.81
2022-09-06T00:09:19.712Z,80.07
2022-09-06T00:10:19.713Z,80.41
2022-09-06T00:11:19.747Z,80.47
2022-09-06T00:12:19.722Z,80.98
2022-09-06T00:13:19.723Z,80.47
2022-09-06T00:14:19.721Z,80.98
2022-09-06T00:15:19.729Z,80.71
2022-09-06T00:16:19.761Z,81.01
2022-09-06T00:17:19.727Z,80.81
2022-09-06T00:18:19.738Z,80.21
2022-09-06T00:19:19.736Z,80.11
2022-09-06T00:20:19.739Z,80.31
2022-09-06T00:21:19.741Z,80.31
2022-09-06T00:22:19.736Z,80.21
2022-09-06T00:23:19.741Z,80.71
2022-09-06T00:24:19.743Z,80.91
2022-09-06T00:25:19.743Z,80.01
2022-09-06T00:26:19.745Z,79.61
2022-09-06T00:27:19.752Z,78.90
2022-09-06T00:28:19.751Z,78.30
2022-09-06T00:29:19.754Z,78.90
2022-09-06T00:30:19.755Z,79.17
2022-09-06T00:31:19.866Z,80.01
2022-09-06T00:32:19.757Z,79.21
2022-09-06T00:33:19.764Z,79.21
2022-09-06T00:34:19.761Z,77.46
2022-09-06T00:35:19.765Z,77.46
2022-09-06T00:36:19.769Z,76.96
2022-09-06T00:37:19.769Z,77.66
2022-09-06T00:38:19.769Z,76.05
2022-09-06T00:39:19.776Z,75.65
2022-09-06T00:40:19.772Z,75.01
2022-09-06T00:41:19.776Z,75.01
2022-09-06T00:42:19.777Z,74.41
2022-09-06T00:43:19.783Z,74.51
2022-09-06T00:44:19.788Z,74.11
2022-09-06T00:45:19.785Z,73.30
2022-09-06T00:46:19.830Z,73.30
2022-09-06T00:47:19.796Z,72.80
2022-09-06T00:48:19.792Z,73.47
2022-09-06T00:49:19.793Z,73.77
2022-09-06T00:50:19.794Z,72.47
2022-09-06T00:51:19.794Z,72.47
2022-09-06T00:52:19.804Z,72.74
2022-09-06T00:53:19.804Z,73.74
2022-09-06T00:54:19.804Z,72.24
2022-09-06T00:55:19.807Z,72.94
2022-09-06T00:56:19.806Z,72.53
2022-09-06T00:57:19.807Z,72.63
2022-09-06T00:58:19.820Z,72.63
2022-09-06T00:59:19.813Z,72.74
2022-09-06T01:00:19.813Z,72.33
2022-09-06T01:01:19.945Z,71.70
2022-09-06T01:02:19.940Z,72.30
2022-09-06T01:03:19.824Z,70.89
2022-09-06T01:04:19.822Z,70.79
2022-09-06T01:05:19.828Z,70.63
2022-09-06T01:06:19.824Z,69.59
2022-09-06T01:07:19.828Z,69.69
2022-09-06T01:08:19.831Z,70.09
2022-09-06T01:09:19.834Z,70.79
2022-09-06T01:10:19.835Z,70.59
2022-09-06T01:11:19.852Z,70.69
2022-09-06T01:12:19.845Z,71.00
2022-09-06T01:13:19.846Z,69.69
2022-09-06T01:14:19.843Z,70.50
2022-09-06T01:15:19.849Z,71.00
2022-09-06T01:16:19.861Z,72.60
2022-09-06T01:17:19.851Z,72.40
2022-09-06T01:18:19.852Z,73.50
2022-09-06T01:19:19.853Z,74.01
2022-09-06T01:20:19.859Z,76.01
2022-09-06T01:21:19.858Z,75.60
2022-09-06T01:22:19.863Z,76.11
2022-09-06T01:23:19.863Z,75.14
2022-09-06T01:24:19.864Z,76.34
2022-09-06T01:25:19.871Z,77.55
2022-09-06T01:26:19.868Z,79.05
2022-09-06T01:27:19.873Z,78.49
2022-09-06T01:28:19.873Z,77.48
2022-09-06T01:29:19.877Z,77.48
2022-09-06T01:30:19.878Z,76.92
2022-09-06T01:31:19.936Z,77.12
2022-09-06T01:32:19.882Z,77.42
2022-09-06T01:33:19.890Z,77.62
2022-09-06T01:34:19.886Z,78.13
2022-09-06T01:35:19.900Z,79.03
2022-09-06T01:36:19.887Z,81.04
2022-09-06T01:37:19.891Z,80.63
2022-09-06T01:38:19.894Z,80.37
2022-09-06T01:39:19.899Z,79.57
2022-09-06T01:40:19.897Z,80.68
2022-09-06T01:41:19.899Z,81.07
2022-09-06T01:42:19.900Z,82.18
2022-09-06T01:43:19.906Z,82.48
2022-09-06T01:44:19.903Z,83.09
2022-09-06T01:45:19.908Z,84.25
2022-09-06T01:46:19.978Z,83.85
2022-09-06T01:47:19.915Z,83.95
2022-09-06T01:48:19.911Z,84.69
2022-09-06T01:49:19.915Z,84.39
2022-09-06T01:50:19.917Z,84.49
2022-09-06T01:51:19.919Z,84.99
2022-09-06T01:52:19.919Z,84.69
2022-09-06T01:53:19.923Z,84.39
2022-09-06T01:54:19.923Z,85.05
2022-09-06T01:55:19.934Z,85.30
2022-09-06T01:56:19.926Z,85.05
2022-09-06T01:57:19.929Z,84.95
2022-09-06T01:58:19.929Z,85.25
2022-09-06T01:59:19.937Z,84.95
2022-09-06T02:00:19.933Z,85.05
2022-09-06T02:01:19.976Z,84.85
2022-09-06T02:02:20.021Z,85.46
2022-09-06T02:03:19.939Z,85.46
2022-09-06T02:04:19.940Z,85.86
2022-09-06T02:05:19.943Z,86.36
2022-09-06T02:06:19.944Z,86.16
2022-09-06T02:07:19.950Z,86.26
2022-09-06T02:08:19.951Z,86.16
2022-09-06T02:09:19.951Z,86.56
2022-09-06T02:10:19.954Z,86.56
2022-09-06T02:11:19.959Z,86.56
2022-09-06T02:12:19.955Z,86.06
2022-09-06T02:13:19.963Z,86.76
2022-09-06T02:14:19.965Z,86.76
2022-09-06T02:15:19.965Z,86.66
2022-09-06T02:16:19.995Z,86.66
2022-09-06T02:17:19.972Z,86.56
2022-09-06T02:18:19.966Z,86.46
2022-09-06T02:19:19.975Z,86.56
2022-09-06T02:20:19.973Z,86.46
2022-09-06T02:21:19.982Z,86.16
2022-09-06T02:22:19.975Z,86.36
2022-09-06T02:23:19.981Z,86.16
2022-09-06T02:24:19.985Z,85.56
2022-09-06T02:25:19.985Z,85.92
2022-09-06T02:26:19.984Z,85.66
2022-09-06T02:27:19.991Z,85.66
2022-09-06T02:28:19.987Z,86.20
2022-09-06T02:29:19.993Z,86.50
2022-09-06T02:30:19.992Z,86.30
2022-09-06T02:31:20.023Z,86.60
2022-09-06T02:32:19.997Z,86.70
2022-09-06T02:33:20.005Z,86.80
2022-09-06T02:34:20.011Z,86.80
2022-09-06T02:35:20.003Z,86.80
2022-09-06T02:36:20.012Z,86.90
2022-09-06T02:37:20.008Z,86.80
2022-09-06T02:38:20.011Z,86.50
2022-09-06T02:39:20.029Z,86.60
2022-09-06T02:40:20.016Z,86.80
2022-09-06T02:41:20.015Z,86.80
2022-09-06T02:42:20.018Z,86.80
2022-09-06T02:43:20.026Z,86.70
2022-09-06T02:44:20.026Z,86.80
2022-09-06T02:45:20.025Z,86.90
2022-09-06T02:46:20.068Z,86.80
2022-09-06T02:47:20.028Z,86.80
2022-09-06T02:48:20.032Z,86.90
2022-09-06T02:49:20.036Z,86.86
2022-09-06T02:50:20.031Z,86.46
2022-09-06T02:51:20.044Z,86.86
2022-09-06T02:52:20.036Z,86.96
2022-09-06T02:53:20.041Z,86.86
2022-09-06T02:54:20.043Z,86.06
2022-09-06T02:55:20.043Z,86.86
2022-09-06T02:56:20.047Z,86.76
2022-09-06T02:57:20.051Z,86.56
2022-09-06T02:58:20.069Z,86.06
2022-09-06T02:59:20.053Z,86.56
2022-09-06T03:00:20.056Z,86.66
2022-09-06T03:01:20.108Z,86.26
2022-09-06T03:02:20.128Z,86.36
2022-09-06T03:03:20.076Z,86.46
2022-09-06T03:04:20.073Z,86.36
2022-09-06T03:05:20.065Z,86.36
2022-09-06T03:06:20.066Z,86.26
2022-09-06T03:07:20.070Z,86.06
2022-09-06T03:08:20.071Z,86.36
2022-09-06T03:09:20.074Z,86.66
2022-09-06T03:10:20.074Z,86.56
2022-09-06T03:11:20.080Z,86.06
2022-09-06T03:12:20.081Z,86.26
2022-09-06T03:13:20.080Z,86.26
2022-09-06T03:14:20.086Z,86.46
2022-09-06T03:15:20.086Z,86.36
2022-09-06T03:16:20.163Z,86.60
2022-09-06T03:17:20.088Z,86.46
2022-09-06T03:18:20.091Z,86.76
2022-09-06T03:19:20.096Z,86.56
2022-09-06T03:20:20.095Z,86.76
2022-09-06T03:21:20.098Z,86.86
2022-09-06T03:22:20.100Z,86.66
2022-09-06T03:23:20.111Z,86.66
2022-09-06T03:24:20.103Z,86.76
2022-09-06T03:25:20.106Z,86.36
2022-09-06T03:26:20.106Z,86.36
2022-09-06T03:27:20.109Z,86.76
2022-09-06T03:28:20.112Z,86.86
2022-09-06T03:29:20.113Z,86.26
2022-09-06T03:30:20.116Z,86.06
2022-09-06T03:31:20.232Z,86.16
2022-09-06T03:32:20.120Z,86.56
2022-09-06T03:33:20.122Z,86.26
2022-09-06T03:34:20.125Z,86.36
2022-09-06T03:35:20.129Z,86.26
2022-09-06T03:36:20.129Z,86.26
2022-09-06T03:37:20.144Z,85.96
2022-09-06T03:38:20.398Z,86.96
2022-09-06T03:39:20.133Z,86.96
2022-09-06T03:40:20.134Z,86.86
2022-09-06T03:41:20.141Z,86.86
2022-09-06T03:42:20.144Z,86.80
2022-09-06T03:43:20.150Z,87.10
2022-09-06T03:44:20.145Z,87.21
2022-09-06T03:45:20.149Z,87.21
2022-09-06T03:46:20.183Z,87.51
2022-09-06T03:47:20.156Z,87.60
2022-09-06T03:48:20.157Z,87.51
2022-09-06T03:49:20.154Z,87.71
2022-09-06T03:50:20.159Z,87.30
2022-09-06T03:51:20.160Z,87.30
2022-09-06T03:52:20.160Z,87.41
2022-09-06T03:53:20.166Z,87.51
2022-09-06T03:54:20.168Z,86.90
2022-09-06T03:55:20.170Z,86.90
2022-09-06T03:56:20.170Z,86.80
2022-09-06T03:57:20.170Z,86.50
2022-09-06T03:58:20.176Z,86.70
2022-09-06T03:59:20.176Z,86.80
2022-09-06T04:00:20.183Z,86.20
2022-09-06T04:01:20.315Z,86.50
2022-09-06T04:02:20.259Z,86.80
2022-09-06T04:03:20.190Z,86.60
2022-09-06T04:04:20.191Z,86.50
2022-09-06T04:05:20.193Z,86.50
2022-09-06T04:06:20.188Z,86.50
2022-09-06T04:07:20.201Z,86.60
2022-09-06T04:08:20.204Z,86.56
2022-09-06T04:09:20.199Z,86.36
2022-09-06T04:10:20.202Z,86.36
2022-09-06T04:11:20.206Z,86.40
2022-09-06T04:12:20.202Z,86.26
2022-09-06T04:13:20.208Z,86.06
2022-09-06T04:14:20.205Z,85.96
2022-09-06T04:15:20.214Z,85.60
2022-09-06T04:16:20.287Z,85.80
2022-09-06T04:17:20.213Z,85.90
2022-09-06T04:18:20.214Z,85.60
2022-09-06T04:19:20.217Z,86.00
2022-09-06T04:20:20.220Z,85.80
2022-09-06T04:21:20.221Z,86.00
2022-09-06T04:22:20.221Z,85.80
2022-09-06T04:23:20.227Z,86.20
2022-09-06T04:24:20.229Z,85.30
2022-09-06T04:25:20.230Z,85.39
2022-09-06T04:26:20.234Z,86.00
2022-09-06T04:27:20.235Z,86.20
2022-09-06T04:28:20.237Z,85.70
2022-09-06T04:29:20.237Z,85.70
2022-09-06T04:30:20.239Z,85.60
2022-09-06T04:31:20.260Z,84.69
2022-09-06T04:32:20.242Z,84.39
2022-09-06T04:33:20.243Z,83.99
2022-09-06T04:34:20.249Z,83.79
2022-09-06T04:35:20.259Z,84.23
2022-09-06T04:36:20.256Z,84.63
2022-09-06T04:37:20.252Z,84.83
2022-09-06T04:38:20.609Z,84.74
2022-09-06T04:39:20.258Z,84.33
2022-09-06T04:40:20.257Z,84.17
2022-09-06T04:41:20.260Z,84.47
2022-09-06T04:42:20.264Z,84.27
2022-09-06T04:43:20.263Z,84.88
2022-09-06T04:44:20.269Z,84.77
2022-09-06T04:45:20.269Z,84.71
2022-09-06T04:46:20.402Z,85.31
2022-09-06T04:47:20.275Z,85.31
2022-09-06T04:48:20.278Z,85.62
2022-09-06T04:49:20.275Z,86.43
2022-09-06T04:50:20.282Z,86.32
2022-09-06T04:51:20.288Z,85.78
2022-09-06T04:52:20.283Z,86.48
2022-09-06T04:53:20.282Z,86.38
2022-09-06T04:54:20.289Z,86.48
2022-09-06T04:55:20.300Z,85.88
2022-09-06T04:56:20.292Z,84.88
2022-09-06T04:57:20.290Z,85.08
2022-09-06T04:58:20.302Z,85.68
2022-09-06T04:59:20.300Z,85.28
2022-09-06T05:00:20.301Z,85.98
2022-09-06T05:01:20.424Z,86.28
2022-09-06T05:02:20.379Z,85.98
2022-09-06T05:03:20.306Z,85.68
2022-09-06T05:04:20.305Z,85.08
2022-09-06T05:05:20.304Z,84.77
2022-09-06T05:06:20.310Z,85.28
2022-09-06T05:07:20.314Z,84.88
2022-09-06T05:08:20.317Z,85.48
2022-09-06T05:09:20.349Z,85.88
2022-09-06T05:10:20.318Z,86.08
2022-09-06T05:11:20.320Z,85.58
2022-09-06T05:12:20.325Z,85.48
2022-09-06T05:13:20.323Z,85.88
2022-09-06T05:14:20.328Z,85.78
2022-09-06T05:15:20.325Z,86.18
2022-09-06T05:16:20.412Z,85.68
2022-09-06T05:17:20.329Z,85.88
2022-09-06T05:18:20.330Z,85.78
2022-09-06T05:19:20.332Z,85.92
2022-09-06T05:20:20.342Z,85.78
2022-09-06T05:21:20.334Z,85.42
2022-09-06T05:22:20.339Z,85.22
2022-09-06T05:23:20.340Z,85.46
2022-09-06T05:24:20.343Z,85.36
2022-09-06T05:25:20.341Z,85.86
2022-09-06T05:26:20.345Z,86.06
2022-09-06T05:27:20.349Z,85.36
2022-09-06T05:28:20.350Z,84.09
2022-09-06T05:29:20.353Z,84.39
2022-09-06T05:30:20.352Z,85.10
2022-09-06T05:31:20.392Z,85.64
2022-09-06T05:32:20.356Z,85.50
2022-09-06T05:33:20.356Z,85.54
2022-09-06T05:34:20.361Z,86.04
2022-09-06T05:35:20.359Z,85.94
2022-09-06T05:36:20.365Z,85.74
2022-09-06T05:37:20.373Z,85.98
2022-09-06T05:38:20.588Z,86.89
2022-09-06T05:39:20.420Z,86.93
2022-09-06T05:40:20.375Z,87.63
2022-09-06T05:41:20.370Z,88.75
2022-09-06T05:42:20.374Z,88.85
2022-09-06T05:43:20.376Z,89.45
2022-09-06T05:44:20.378Z,89.35
2022-09-06T05:45:20.377Z,90.41
2022-09-06T05:46:20.385Z,90.91
2022-09-06T05:47:20.379Z,90.56
2022-09-06T05:48:20.383Z,90.30
2022-09-06T05:49:20.380Z,90.46
2022-09-06T05:50:20.383Z,90.86
2022-09-06T05:51:20.385Z,90.77
2022-09-06T05:52:20.390Z,90.86
2022-09-06T05:53:20.389Z,90.56
2022-09-06T05:54:20.394Z,90.56
2022-09-06T05:55:20.390Z,90.52
2022-09-06T05:56:20.397Z,90.62
2022-09-06T05:57:20.396Z,89.61
2022-09-06T05:58:20.408Z,89.61
2022-09-06T05:59:20.399Z,89.71
2022-09-06T06:00:20.445Z,90.11
2022-09-06T06:01:20.486Z,90.01
2022-09-06T06:02:20.469Z,90.98
2022-09-06T06:03:20.406Z,90.28
2022-09-06T06:04:20.407Z,89.97
2022-09-06T06:05:20.406Z,90.68
2022-09-06T06:06:20.410Z,90.88
2022-09-06T06:07:20.412Z,90.68
2022-09-06T06:08:20.414Z,90.53
2022-09-06T06:09:20.412Z,90.44
2022-09-06T06:10:20.415Z,90.53
2022-09-06T06:11:20.414Z,90.44
2022-09-06T06:12:20.418Z,90.53
2022-09-06T06:13:20.417Z,90.59
2022-09-06T06:14:20.420Z,90.69
2022-09-06T06:15:20.420Z,90.09
2022-09-06T06:16:20.492Z,90.19
2022-09-06T06:17:20.423Z,89.99
2022-09-06T06:18:20.428Z,89.79
2022-09-06T06:19:20.428Z,89.99
2022-09-06T06:20:20.433Z,89.79
2022-09-06T06:21:20.432Z,90.25
2022-09-06T06:22:20.436Z,90.39
2022-09-06T06:23:20.435Z,89.89
2022-09-06T06:24:20.436Z,89.89
2022-09-06T06:25:20.434Z,90.45
2022-09-06T06:26:20.437Z,90.25
2022-09-06T06:27:20.440Z,90.34
2022-09-06T06:28:20.445Z,89.75
2022-09-06T06:29:20.444Z,89.54
2022-09-06T06:30:20.461Z,89.44
2022-09-06T06:31:20.491Z,89.14
2022-09-06T06:32:20.451Z,89.34
2022-09-06T06:33:20.449Z,89.04
2022-09-06T06:34:20.462Z,89.20
2022-09-06T06:35:20.461Z,89.95
2022-09-06T06:36:20.455Z,89.54
2022-09-06T06:37:20.472Z,89.34
2022-09-06T06:38:20.907Z,89.24
2022-09-06T06:39:20.461Z,88.84
2022-09-06T06:40:20.464Z,88.84
2022-09-06T06:41:20.461Z,89.14
2022-09-06T06:42:20.464Z,88.84
2022-09-06T06:43:20.464Z,88.90
2022-09-06T06:44:20.469Z,89.14
2022-09-06T06:45:20.468Z,88.70
2022-09-06T06:46:20.506Z,89.20
2022-09-06T06:47:20.475Z,88.70
2022-09-06T06:48:20.476Z,89.00
2022-09-06T06:49:20.479Z,89.40
2022-09-06T06:50:20.481Z,88.85
2022-09-06T06:51:20.490Z,89.10
2022-09-06T06:52:20.491Z,89.06
2022-09-06T06:53:20.481Z,88.65
2022-09-06T06:54:20.491Z,89.06
2022-09-06T06:55:20.485Z,88.25
2022-09-06T06:56:20.488Z,88.65
2022-09-06T06:57:20.489Z,88.35
2022-09-06T06:58:20.499Z,87.65
2022-09-06T06:59:20.498Z,87.65
2022-09-06T07:00:22.289Z,87.55
2022-09-06T07:01:20.647Z,87.60
2022-09-06T07:02:20.580Z,86.80
2022-09-06T07:03:20.503Z,86.80
2022-09-06T07:04:20.509Z,87.10
2022-09-06T07:06:21.222Z,87.21
2022-09-06T07:07:38.002Z,87.41
2022-09-06T07:08:20.513Z,87.81
2022-09-06T07:09:20.512Z,87.77
2022-09-06T07:10:35.990Z,87.57
2022-09-06T07:11:22.962Z,87.87
2022-09-06T07:12:20.522Z,86.76
2022-09-06T07:13:20.551Z,87.06
2022-09-06T07:14:20.523Z,87.06
2022-09-06T07:15:20.530Z,86.72
2022-09-06T07:16:20.605Z,86.92
2022-09-06T07:17:20.530Z,86.72
2022-09-06T07:18:20.530Z,86.42
2022-09-06T07:20:20.543Z,86.82
2022-09-06T07:22:20.540Z,86.28
2022-09-06T07:24:20.543Z,84.88
2022-09-06T07:25:21.651Z,84.17
2022-09-06T07:26:20.555Z,84.67
2022-09-06T07:28:20.553Z,84.77
2022-09-06T07:29:20.564Z,84.74
2022-09-06T07:30:20.693Z,85.03
2022-09-06T07:32:20.560Z,84.63
2022-09-06T07:33:20.563Z,84.13
2022-09-06T07:34:20.827Z,84.29
2022-09-06T07:35:20.598Z,84.19
2022-09-06T07:36:20.569Z,84.39
2022-09-06T07:37:20.576Z,83.89
2022-09-06T07:38:20.776Z,84.65
2022-09-06T07:39:20.574Z,82.85
2022-09-06T07:40:20.581Z,81.65
2022-09-06T07:41:20.581Z,81.65
2022-09-06T07:42:20.585Z,82.35
2022-09-06T07:43:20.584Z,80.65
2022-09-06T07:44:20.600Z,81.61
2022-09-06T07:45:20.591Z,82.01
2022-09-06T07:46:20.632Z,81.01
2022-09-06T07:48:20.602Z,80.21
2022-09-06T07:49:20.601Z,79.80
2022-09-06T07:51:20.606Z,78.86
2022-09-06T07:53:30.291Z,79.43
2022-09-06T07:54:35.855Z,79.03
2022-09-06T07:55:20.624Z,79.53
2022-09-06T07:56:20.621Z,79.19
2022-09-06T07:57:20.623Z,80.49
2022-09-06T07:58:20.631Z,79.19
2022-09-06T07:59:20.631Z,79.55
2022-09-06T08:00:20.636Z,78.85
2022-09-06T08:01:20.693Z,79.55
2022-09-06T08:02:20.740Z,79.96
2022-09-06T08:03:20.644Z,79.16
2022-09-06T08:04:20.649Z,79.11
2022-09-06T08:06:20.652Z,76.72
2022-09-06T08:09:20.661Z,76.02
2022-09-06T08:10:20.667Z,75.78
2022-09-06T08:11:20.673Z,75.62
2022-09-06T08:12:20.673Z,75.59
2022-09-06T08:13:20.675Z,75.48
2022-09-06T08:14:20.678Z,74.88
2022-09-06T08:15:20.682Z,74.38
2022-09-06T08:16:20.730Z,75.05
2022-09-06T08:17:20.687Z,74.15
2022-09-06T08:18:20.692Z,74.25
2022-09-06T08:19:20.696Z,74.55
2022-09-06T08:20:20.804Z,74.35
2022-09-06T08:21:20.702Z,73.85
2022-09-06T08:22:20.709Z,73.35
2022-09-06T08:23:20.713Z,73.85
2022-09-06T08:24:20.718Z,74.15
2022-09-06T08:25:20.722Z,74.11
2022-09-06T08:26:20.725Z,74.32
2022-09-06T08:27:20.740Z,74.05
2022-09-06T08:28:20.732Z,74.91
2022-09-06T08:29:20.774Z,75.81
2022-09-06T08:30:20.741Z,74.75
2022-09-06T08:31:20.782Z,73.82
2022-09-06T08:32:20.749Z,74.11
2022-09-06T08:33:20.813Z,74.71
2022-09-06T08:34:20.754Z,74.81
2022-09-06T08:35:20.759Z,75.21
2022-09-06T08:36:20.762Z,73.72
2022-09-06T08:37:24.851Z,74.38
2022-09-06T08:38:21.127Z,74.98
2022-09-06T08:39:20.778Z,74.08
2022-09-06T08:40:20.777Z,74.48
2022-09-06T08:41:20.782Z,72.49
2022-09-06T08:42:20.787Z,71.69
2022-09-06T08:43:20.790Z,72.19
2022-09-06T08:45:20.800Z,73.14
2022-09-06T08:46:20.837Z,71.95
2022-09-06T08:47:20.804Z,71.05
2022-09-06T08:48:20.813Z,72.35
2022-09-06T08:49:20.811Z,71.15
2022-09-06T08:50:20.835Z,71.12
2022-09-06T08:51:20.820Z,71.15
2022-09-06T08:52:20.825Z,71.22
2022-09-06T08:53:20.831Z,70.65
2022-09-06T08:54:20.837Z,70.52
2022-09-06T08:55:20.839Z,70.62
2022-09-06T08:56:20.845Z,72.02
2022-09-06T08:57:20.842Z,70.92
2022-09-06T08:58:20.845Z,71.72
2022-09-06T08:59:20.859Z,71.51
2022-09-06T09:00:20.861Z,72.11
2022-09-06T09:01:20.926Z,71.72
2022-09-06T09:02:20.947Z,71.92
2022-09-06T09:03:20.870Z,71.35
2022-09-06T09:04:20.867Z,70.22
2022-09-06T09:05:20.875Z,71.32
2022-09-06T09:06:20.875Z,71.92
2022-09-06T09:07:20.884Z,71.81
2022-09-06T09:08:20.883Z,71.32
2022-09-06T09:09:20.889Z,70.72
2022-09-06T09:10:20.891Z,70.52
2022-09-06T09:11:20.899Z,71.72
2022-09-06T09:12:20.897Z,71.81
2022-09-06T09:13:20.904Z,69.62
2022-09-06T09:14:20.907Z,70.72
2022-09-06T09:15:20.912Z,70.39
2022-09-06T09:16:20.993Z,70.09
2022-09-06T09:17:20.917Z,69.29
2022-09-06T09:18:20.925Z,68.53
2022-09-06T09:19:20.927Z,69.82
2022-09-06T09:20:20.929Z,70.52
2022-09-06T09:21:20.931Z,67.83
2022-09-06T09:22:20.935Z,67.93
2022-09-06T09:23:20.940Z,68.63
2022-09-06T09:24:20.954Z,69.13
2022-09-06T09:25:20.946Z,68.53
2022-09-06T09:26:20.950Z,69.13
2022-09-06T09:27:20.953Z,68.46
2022-09-06T09:28:20.957Z,68.96
2022-09-06T09:29:26.773Z,70.36
2022-09-06T09:31:21.057Z,71.05
2022-09-06T09:32:20.970Z,69.26
2022-09-06T09:33:20.978Z,69.06
2022-09-06T09:34:20.977Z,69.06
2022-09-06T09:35:20.989Z,67.96
2022-09-06T09:36:20.987Z,67.77
2022-09-06T09:38:20.994Z,69.16
2022-09-06T09:39:21.000Z,69.29
2022-09-06T09:40:21.000Z,69.89
2022-09-06T09:41:21.003Z,71.09
2022-09-06T09:42:21.008Z,71.05
2022-09-06T09:43:21.060Z,67.30
2022-09-06T09:44:21.019Z,68.10
2022-09-06T09:45:21.023Z,69.29
2022-09-06T09:46:21.059Z,68.86
2022-09-06T09:47:21.025Z,69.36
2022-09-06T09:48:21.036Z,69.96
2022-09-06T09:49:21.034Z,69.56
2022-09-06T09:50:21.038Z,68.46
2022-09-06T09:51:26.223Z,67.80
2022-09-06T09:52:21.056Z,68.16
2022-09-06T09:53:21.050Z,69.89
2022-09-06T09:54:21.053Z,69.36
2022-09-06T09:55:21.057Z,68.99
2022-09-06T09:56:21.062Z,69.79
2022-09-06T09:57:21.064Z,69.39
2022-09-06T09:58:21.070Z,68.99
2022-09-06T09:59:21.076Z,68.90
2022-09-06T10:00:21.073Z,68.60
2022-09-06T10:01:21.096Z,69.09
2022-09-06T10:02:21.130Z,68.70
2022-09-06T10:03:21.134Z,68.49
2022-09-06T10:05:21.094Z,68.60
2022-09-06T10:07:21.097Z,68.90
2022-09-06T10:08:21.101Z,64.94
2022-09-06T10:09:21.114Z,65.41
2022-09-06T10:10:21.111Z,65.41
2022-09-06T10:11:21.112Z,68.70
2022-09-06T10:12:21.114Z,67.90
2022-09-06T10:13:21.123Z,68.70
2022-09-06T10:14:21.124Z,68.00
2022-09-06T10:15:21.132Z,67.47
2022-09-06T10:16:21.198Z,68.19
2022-09-06T10:17:21.135Z,68.79
2022-09-06T10:18:21.137Z,66.27
2022-09-06T10:19:21.491Z,66.77
2022-09-06T10:20:21.145Z,67.07
2022-09-06T10:21:21.147Z,66.17
2022-09-06T10:22:21.151Z,67.07
2022-09-06T10:24:28.441Z,64.87
2022-09-06T10:25:21.162Z,67.07
2022-09-06T10:26:21.166Z,66.67
2022-09-06T10:27:21.176Z,66.57
2022-09-06T10:28:21.172Z,68.37
2022-09-06T10:29:21.177Z,68.16
2022-09-06T10:30:21.183Z,67.86
2022-09-06T10:31:21.234Z,65.37
2022-09-06T10:32:21.188Z,64.84
2022-09-06T10:33:21.191Z,67.24
2022-09-06T10:34:21.198Z,67.63
2022-09-06T10:35:21.222Z,68.33
2022-09-06T10:36:21.203Z,68.43
2022-09-06T10:37:21.207Z,64.34
2022-09-06T10:38:21.212Z,65.94
2022-09-06T10:39:21.216Z,64.34
2022-09-06T10:40:21.216Z,65.24
2022-09-06T10:41:21.223Z,66.44
2022-09-06T10:42:21.242Z,65.71
2022-09-06T10:43:21.228Z,65.61
2022-09-06T10:44:21.237Z,64.72
2022-09-06T10:45:21.236Z,66.01
2022-09-06T10:46:21.263Z,63.62
2022-09-06T10:47:21.243Z,64.12
2022-09-06T10:48:21.247Z,63.69
2022-09-06T10:49:21.248Z,62.40
2022-09-06T10:50:21.255Z,62.37
2022-09-06T10:51:21.260Z,62.96
2022-09-06T10:52:21.262Z,64.45
2022-09-06T10:53:21.265Z,64.28
2022-09-06T10:54:21.267Z,65.18
2022-09-06T10:55:21.274Z,64.88
2022-09-06T10:56:21.278Z,63.29
2022-09-06T10:58:21.345Z,64.88
2022-09-06T10:59:37.635Z,65.38
2022-09-06T11:00:21.290Z,62.99
2022-09-06T11:01:21.362Z,65.68
2022-09-06T11:02:21.411Z,63.09
2022-09-06T11:04:21.303Z,64.58
2022-09-06T11:06:22.493Z,66.11
2022-09-06T11:07:21.360Z,65.91
2022-09-06T11:09:21.327Z,65.61
2022-09-06T11:10:21.332Z,65.91
2022-09-06T11:11:21.343Z,65.91
2022-09-06T11:12:21.334Z,65.41
2022-09-06T11:13:21.340Z,63.72
2022-09-06T11:14:21.343Z,64.48
2022-09-06T11:15:21.348Z,63.16
2022-09-06T11:16:21.384Z,62.26
2022-09-06T11:17:21.361Z,62.37
2022-09-06T11:18:21.354Z,63.76
2022-09-06T11:19:21.581Z,65.15
2022-09-06T11:20:21.365Z,66.24
2022-09-06T11:21:21.383Z,64.95
2022-09-06T11:22:21.371Z,64.45
2022-09-06T11:23:21.375Z,64.95
2022-09-06T11:24:21.381Z,64.75
2022-09-06T11:25:21.382Z,65.28
2022-09-06T11:26:21.386Z,65.98
2022-09-06T11:27:21.390Z,65.98
2022-09-06T11:28:21.396Z,63.79
2022-09-06T11:29:21.404Z,64.18
2022-09-06T11:30:21.401Z,64.88
2022-09-06T11:32:21.408Z,65.98
2022-09-06T11:33:21.419Z,64.98
2022-09-06T11:34:21.425Z,66.97
2022-09-06T11:35:21.432Z,66.27
2022-09-06T11:36:21.435Z,65.38
2022-09-06T11:37:21.429Z,66.17
2022-09-06T11:38:21.449Z,65.48
2022-09-06T11:40:28.941Z,66.38
2022-09-06T11:41:21.444Z,65.48
2022-09-06T11:42:21.447Z,64.98
2022-09-06T11:43:21.453Z,65.98
2022-09-06T11:44:21.454Z,64.58
2022-09-06T11:45:21.561Z,66.08
2022-09-06T11:46:21.526Z,66.17
2022-09-06T11:47:21.469Z,66.27
2022-09-06T11:48:21.471Z,64.69
2022-09-06T11:49:21.478Z,64.75
2022-09-06T11:50:21.481Z,64.88
2022-09-06T11:51:21.491Z,64.58
2022-09-06T11:52:21.486Z,64.69
2022-09-06T11:53:21.495Z,64.95
2022-09-06T11:54:21.497Z,67.04
2022-09-06T11:55:22.924Z,65.98
2022-09-06T11:56:21.501Z,66.44
2022-09-06T11:57:21.529Z,65.38
2022-09-06T11:58:21.511Z,66.35
2022-09-06T11:59:21.521Z,65.75
2022-09-06T12:00:21.519Z,64.78
2022-09-06T12:01:21.521Z,66.24
2022-09-06T12:02:21.693Z,65.15
2022-09-06T12:04:21.533Z,65.55
2022-09-06T12:05:21.538Z,65.05
2022-09-06T12:06:21.545Z,66.35
2022-09-06T12:07:21.548Z,66.14
2022-09-06T12:08:21.551Z,66.14
2022-09-06T12:09:21.555Z,66.54
2022-09-06T12:10:21.558Z,65.05
2022-09-06T12:11:21.562Z,64.82
2022-09-06T12:12:21.565Z,65.02
2022-09-06T12:13:21.573Z,64.39
2022-09-06T12:14:21.573Z,63.60
2022-09-06T12:15:21.579Z,63.17
2022-09-06T12:16:21.636Z,63.27
2022-09-06T12:17:21.586Z,62.77
2022-09-06T12:18:21.588Z,62.97
2022-09-06T12:19:22.057Z,64.36
2022-09-06T12:20:21.597Z,63.86
2022-09-06T12:21:21.602Z,64.26
2022-09-06T12:22:21.607Z,65.28
2022-09-06T12:23:21.609Z,65.78
2022-09-06T12:24:21.614Z,66.67
2022-09-06T12:25:21.619Z,66.88
2022-09-06T12:26:21.621Z,66.38
2022-09-06T12:27:21.628Z,66.91
2022-09-06T12:28:21.662Z,66.11
2022-09-06T12:29:21.658Z,67.11
2022-09-06T12:30:21.639Z,67.80
2022-09-06T12:31:21.653Z,67.90
2022-09-06T12:32:21.646Z,67.80
2022-09-06T12:33:21.654Z,66.94
2022-09-06T12:34:21.663Z,68.53
2022-09-06T12:36:21.665Z,67.70
2022-09-06T12:37:21.666Z,68.40
2022-09-06T12:38:21.672Z,67.93
2022-09-06T12:39:21.678Z,68.83
2022-09-06T12:40:21.680Z,69.09
2022-09-06T12:41:21.685Z,66.91
2022-09-06T12:42:21.690Z,65.12
2022-09-06T12:43:21.691Z,65.78
2022-09-06T12:44:21.695Z,65.09
2022-09-06T12:45:26.560Z,65.75
2022-09-06T12:46:21.768Z,66.15
2022-09-06T12:47:21.711Z,65.75
2022-09-06T12:48:21.712Z,66.88
2022-09-06T12:49:21.717Z,67.77
2022-09-06T12:50:21.720Z,66.78
2022-09-06T12:51:21.728Z,66.58
2022-09-06T12:52:21.729Z,67.67
2022-09-06T12:53:23.313Z,66.97
2022-09-06T12:54:21.739Z,65.09
2022-09-06T12:55:21.742Z,65.88
2022-09-06T12:56:21.751Z,66.67
2022-09-06T12:57:21.751Z,65.88
2022-09-06T12:58:21.756Z,66.67
2022-09-06T12:59:21.766Z,66.97
2022-09-06T13:00:21.769Z,66.88
2022-09-06T13:01:21.916Z,66.48
2022-09-06T13:02:22.084Z,65.28
2022-09-06T13:03:21.779Z,64.49
2022-09-06T13:04:21.780Z,63.96
2022-09-06T13:05:21.786Z,62.87
2022-09-06T13:06:26.666Z,64.73
2022-09-06T13:07:21.793Z,63.34
2022-09-06T13:08:21.807Z,62.81
2022-09-06T13:09:21.801Z,61.32
2022-09-06T13:10:21.922Z,60.20
2022-09-06T13:11:21.811Z,62.26
2022-09-06T13:12:21.815Z,60.86
2022-09-06T13:13:21.818Z,61.96
2022-09-06T13:14:21.825Z,62.05
2022-09-06T13:15:21.826Z,62.35
2022-09-06T13:16:21.901Z,62.35
2022-09-06T13:17:21.834Z,62.68
2022-09-06T13:18:22.001Z,62.08